<?xml version="1.0" encoding="UTF-8" standalone="no" ?><gpx xmlns="http://www.topografix.com/GPX/1/1" xmlns:gpxx="http://www.garmin.com/xmlschemas/GpxExtensions/v3" xmlns:wptx1="http://www.garmin.com/xmlschemas/WaypointExtension/v1" xmlns:gpxtpx="http://www.garmin.com/xmlschemas/TrackPointExtension/v1" creator="GuideVTT.com" version="1.1" xmlns:xsi="http://www.w3.org/2001/XMLSchema-instance" xsi:schemaLocation="http://www.topografix.com/GPX/1/1 http://www.topografix.com/GPX/1/1/gpx.xsd http://www.garmin.com/xmlschemas/GpxExtensions/v3 http://www8.garmin.com/xmlschemas/GpxExtensionsv3.xsd http://www.garmin.com/xmlschemas/WaypointExtension/v1 http://www8.garmin.com/xmlschemas/WaypointExtensionv1.xsd http://www.garmin.com/xmlschemas/TrackPointExtension/v1 http://www.garmin.com/xmlschemas/TrackPointExtensionv1.xsd">
<metadata><link href="http://www.garmin.com"><text>Garmin International</text></link><time>2013-06-22T15:13:50Z</time></metadata>
<trk><name>ne_tn_748.gpx</name><extensions><gpxx:TrackExtension><gpxx:DisplayColor>Cyan</gpxx:DisplayColor></gpxx:TrackExtension></extensions><trkseg>
<trkpt lat="47.07273504" lon="6.86985365"><ele></ele><time>2014-5-2T11:15:31Z</time></trkpt>
<trkpt lat="47.07344335" lon="6.86938532"><ele></ele><time>2014-5-2T11:15:34Z</time></trkpt>
<trkpt lat="47.07335111" lon="6.86892547"><ele></ele><time>2014-5-2T11:15:37Z</time></trkpt>
<trkpt lat="47.07353876" lon="6.86867332"><ele></ele><time>2014-5-2T11:15:40Z</time></trkpt>
<trkpt lat="47.07326533" lon="6.86795207"><ele></ele><time>2014-5-2T11:15:43Z</time></trkpt>
<trkpt lat="47.07307375" lon="6.86741429"><ele></ele><time>2014-5-2T11:15:46Z</time></trkpt>
<trkpt lat="47.07240388" lon="6.86656563"><ele></ele><time>2014-5-2T11:15:49Z</time></trkpt>
<trkpt lat="47.07221244" lon="6.86605419"><ele></ele><time>2014-5-2T11:15:52Z</time></trkpt>
<trkpt lat="47.07266651" lon="6.86511454"><ele></ele><time>2014-5-2T11:15:55Z</time></trkpt>
<trkpt lat="47.07265861" lon="6.86353468"><ele></ele><time>2014-5-2T11:15:58Z</time></trkpt>
<trkpt lat="47.07242886" lon="6.86256285"><ele></ele><time>2014-5-2T11:16:1Z</time></trkpt>
<trkpt lat="47.07219063" lon="6.86169645"><ele></ele><time>2014-5-2T11:16:4Z</time></trkpt>
<trkpt lat="47.07259348" lon="6.86131030"><ele></ele><time>2014-5-2T11:16:7Z</time></trkpt>
<trkpt lat="47.07318415" lon="6.86071145"><ele></ele><time>2014-5-2T11:16:10Z</time></trkpt>
<trkpt lat="47.07349599" lon="6.86011560"><ele></ele><time>2014-5-2T11:16:13Z</time></trkpt>
<trkpt lat="47.07344597" lon="6.85911549"><ele></ele><time>2014-5-2T11:16:16Z</time></trkpt>
<trkpt lat="47.07316321" lon="6.85834174"><ele></ele><time>2014-5-2T11:16:19Z</time></trkpt>
<trkpt lat="47.07311258" lon="6.85722315"><ele></ele><time>2014-5-2T11:16:22Z</time></trkpt>
<trkpt lat="47.07239200" lon="6.85703347"><ele></ele><time>2014-5-2T11:16:25Z</time></trkpt>
<trkpt lat="47.07190389" lon="6.85656478"><ele></ele><time>2014-5-2T11:16:28Z</time></trkpt>
<trkpt lat="47.07118437" lon="6.85658576"><ele></ele><time>2014-5-2T11:16:31Z</time></trkpt>
<trkpt lat="47.07028490" lon="6.85659552"><ele></ele><time>2014-5-2T11:16:34Z</time></trkpt>
<trkpt lat="47.06937369" lon="6.85606563"><ele></ele><time>2014-5-2T11:16:37Z</time></trkpt>
<trkpt lat="47.06865218" lon="6.85569168"><ele></ele><time>2014-5-2T11:16:40Z</time></trkpt>
<trkpt lat="47.06762377" lon="6.85511043"><ele></ele><time>2014-5-2T11:16:43Z</time></trkpt>
<trkpt lat="47.06672429" lon="6.85512022"><ele></ele><time>2014-5-2T11:16:46Z</time></trkpt>
<trkpt lat="47.06618354" lon="6.85491547"><ele></ele><time>2014-5-2T11:16:49Z</time></trkpt>
<trkpt lat="47.06518318" lon="6.85454459"><ele></ele><time>2014-5-2T11:16:52Z</time></trkpt>
<trkpt lat="47.06451656" lon="6.85435439"><ele></ele><time>2014-5-2T11:16:55Z</time></trkpt>
<trkpt lat="47.06226948" lon="6.85469479"><ele></ele><time>2014-5-2T11:16:58Z</time></trkpt>
<trkpt lat="47.06118278" lon="6.85503571"><ele></ele><time>2014-5-2T11:17:1Z</time></trkpt>
<trkpt lat="47.06197733" lon="6.85917360"><ele></ele><time>2014-5-2T11:17:4Z</time></trkpt>
<trkpt lat="47.06134876" lon="6.85939100"><ele></ele><time>2014-5-2T11:17:7Z</time></trkpt>
<trkpt lat="47.05976236" lon="6.85874998"><ele></ele><time>2014-5-2T11:17:10Z</time></trkpt>
<trkpt lat="47.05904437" lon="6.85907366"><ele></ele><time>2014-5-2T11:17:13Z</time></trkpt>
<trkpt lat="47.05792941" lon="6.85916468"><ele></ele><time>2014-5-2T11:17:16Z</time></trkpt>
<trkpt lat="47.05738434" lon="6.85810441"><ele></ele><time>2014-5-2T11:17:19Z</time></trkpt>
<trkpt lat="47.05539683" lon="6.85641486"><ele></ele><time>2014-5-2T11:17:22Z</time></trkpt>
<trkpt lat="47.05535419" lon="6.85687599"><ele></ele><time>2014-5-2T11:17:25Z</time></trkpt>
<trkpt lat="47.05481817" lon="6.85760571"><ele></ele><time>2014-5-2T11:17:28Z</time></trkpt>
<trkpt lat="47.05418087" lon="6.85787584"><ele></ele><time>2014-5-2T11:17:31Z</time></trkpt>
<trkpt lat="47.05441773" lon="6.85846556"><ele></ele><time>2014-5-2T11:17:34Z</time></trkpt>
<trkpt lat="47.05486920" lon="6.85880288"><ele></ele><time>2014-5-2T11:17:37Z</time></trkpt>
<trkpt lat="47.05482655" lon="6.85926401"><ele></ele><time>2014-5-2T11:17:40Z</time></trkpt>
<trkpt lat="47.05432251" lon="6.85920364"><ele></ele><time>2014-5-2T11:17:43Z</time></trkpt>
<trkpt lat="47.05419857" lon="6.85959983"><ele></ele><time>2014-5-2T11:17:46Z</time></trkpt>
<trkpt lat="47.05451730" lon="6.86037294"><ele></ele><time>2014-5-2T11:17:49Z</time></trkpt>
<trkpt lat="47.05492545" lon="6.86103979"><ele></ele><time>2014-5-2T11:17:52Z</time></trkpt>
<trkpt lat="47.05546943" lon="6.86188946"><ele></ele><time>2014-5-2T11:17:55Z</time></trkpt>
<trkpt lat="47.05614066" lon="6.86300103"><ele></ele><time>2014-5-2T11:17:58Z</time></trkpt>
<trkpt lat="47.05705401" lon="6.86396524"><ele></ele><time>2014-5-2T11:18:1Z</time></trkpt>
<trkpt lat="47.05795619" lon="6.86449524"><ele></ele><time>2014-5-2T11:18:4Z</time></trkpt>
<trkpt lat="47.05907318" lon="6.86481236"><ele></ele><time>2014-5-2T11:18:7Z</time></trkpt>
<trkpt lat="47.05958346" lon="6.86612320"><ele></ele><time>2014-5-2T11:18:10Z</time></trkpt>
<trkpt lat="47.06020443" lon="6.86618239"><ele></ele><time>2014-5-2T11:18:13Z</time></trkpt>
<trkpt lat="47.06092401" lon="6.86617471"><ele></ele><time>2014-5-2T11:18:16Z</time></trkpt>
<trkpt lat="47.06142640" lon="6.86590608"><ele></ele><time>2014-5-2T11:18:19Z</time></trkpt>
<trkpt lat="47.06205833" lon="6.86636005"><ele></ele><time>2014-5-2T11:18:22Z</time></trkpt>
<trkpt lat="47.06255429" lon="6.86660487"><ele></ele><time>2014-5-2T11:18:25Z</time></trkpt>
<trkpt lat="47.06340412" lon="6.86746463"><ele></ele><time>2014-5-2T11:18:28Z</time></trkpt>
<trkpt lat="47.06390113" lon="6.86792008"><ele></ele><time>2014-5-2T11:18:31Z</time></trkpt>
<trkpt lat="47.06426379" lon="6.86849544"><ele></ele><time>2014-5-2T11:18:34Z</time></trkpt>
<trkpt lat="47.06544707" lon="6.86948336"><ele></ele><time>2014-5-2T11:18:37Z</time></trkpt>
<trkpt lat="47.06562383" lon="6.87066628"><ele></ele><time>2014-5-2T11:18:40Z</time></trkpt>
<trkpt lat="47.06626630" lon="6.87143619"><ele></ele><time>2014-5-2T11:18:43Z</time></trkpt>
<trkpt lat="47.06689051" lon="6.87215365"><ele></ele><time>2014-5-2T11:18:46Z</time></trkpt>
<trkpt lat="47.06743189" lon="6.87249022"><ele></ele><time>2014-5-2T11:18:49Z</time></trkpt>
<trkpt lat="47.06757872" lon="6.87308109"><ele></ele><time>2014-5-2T11:18:52Z</time></trkpt>
<trkpt lat="47.06739210" lon="6.87354383"><ele></ele><time>2014-5-2T11:18:55Z</time></trkpt>
<trkpt lat="47.06794109" lon="6.87543382"><ele></ele><time>2014-5-2T11:18:58Z</time></trkpt>
<trkpt lat="47.06996622" lon="6.87384585"><ele></ele><time>2014-5-2T11:19:1Z</time></trkpt>
<trkpt lat="47.07050720" lon="6.87410346"><ele></ele><time>2014-5-2T11:19:4Z</time></trkpt>
<trkpt lat="47.07081166" lon="6.87382378"><ele></ele><time>2014-5-2T11:19:7Z</time></trkpt>
<trkpt lat="47.07085087" lon="6.87265161"><ele></ele><time>2014-5-2T11:19:10Z</time></trkpt>
<trkpt lat="47.07121836" lon="6.87238442"><ele></ele><time>2014-5-2T11:19:13Z</time></trkpt>
<trkpt lat="47.07171625" lon="6.87302429"><ele></ele><time>2014-5-2T11:19:16Z</time></trkpt>
<trkpt lat="47.07230550" lon="6.87395287"><ele></ele><time>2014-5-2T11:19:19Z</time></trkpt>
<trkpt lat="47.07302444" lon="6.87381364"><ele></ele><time>2014-5-2T11:19:22Z</time></trkpt>
<trkpt lat="47.07278176" lon="6.87202559"><ele></ele><time>2014-5-2T11:19:25Z</time></trkpt>
<trkpt lat="47.07255078" lon="6.87079041"><ele></ele><time>2014-5-2T11:19:28Z</time></trkpt>
<trkpt lat="47.07264646" lon="6.87013108"><ele></ele><time>2014-5-2T11:19:31Z</time></trkpt>
</trkseg></trk></gpx>